sensor_id;sensor_type;location;lat;lon;timestamp;P1;durP1;ratioP1;P2;durP2;ratioP2
15354;SDS011;7777;52.254;9.618;2023-05-10T00:00:08;5.13;;;2.20;;
15354;SDS011;7777;52.254;9.618;2023-05-10T00:02:34;5.20;;;1.97;;
15354;SDS011;7777;52.254;9.618;2023-05-10T00:05:01;3.33;;;2.20;;
15354;SDS011;7777;52.254;9.618;2023-05-10T00:07:27;5.50;;;2.30;;
15354;SDS011;7777;52.254;9.618;2023-05-10T00:09:53;4.07;;;2.23;;
15354;SDS011;7777;52.254;9.618;2023-05-10T00:12:18;7.67;;;2.30;;
15354;SDS011;7777;52.254;9.618;2023-05-10T00:14:44;4.93;;;2.20;;
15354;SDS011;7777;52.254;9.618;2023-05-10T00:17:10;3.63;;;2.10;;
15354;SDS011;7777;52.254;9.618;2023-05-10T00:19:35;3.30;;;2.30;;
15354;SDS011;7777;52.254;9.618;2023-05-10T00:22:01;2.87;;;1.97;;
15354;SDS011;7777;52.254;9.618;2023-05-10T00:24:28;2.93;;;2.00;;
15354;SDS011;7777;52.254;9.618;2023-05-10T00:26:53;17.03;;;2.73;;
15354;SDS011;7777;52.254;9.618;2023-05-10T00:29:19;3.30;;;2.20;;
15354;SDS011;7777;52.254;9.618;2023-05-10T00:31:45;4.00;;;1.97;;
15354;SDS011;7777;52.254;9.618;2023-05-10T00:34:11;7.90;;;2.53;;
15354;SDS011;7777;52.254;9.618;2023-05-10T00:36:36;5.10;;;2.80;;
15354;SDS011;7777;52.254;9.618;2023-05-10T00:39:02;4.27;;;2.43;;
15354;SDS011;7777;52.254;9.618;2023-05-10T00:41:28;4.73;;;2.10;;
15354;SDS011;7777;52.254;9.618;2023-05-10T00:43:57;6.00;;;2.37;;
15354;SDS011;7777;52.254;9.618;2023-05-10T00:46:23;4.87;;;2.60;;
15354;SDS011;7777;52.254;9.618;2023-05-10T00:48:49;4.83;;;2.60;;
15354;SDS011;7777;52.254;9.618;2023-05-10T00:51:15;4.10;;;2.30;;
15354;SDS011;7777;52.254;9.618;2023-05-10T00:53:41;7.57;;;2.70;;
15354;SDS011;7777;52.254;9.618;2023-05-10T00:56:10;3.07;;;2.13;;
15354;SDS011;7777;52.254;9.618;2023-05-10T00:58:37;4.90;;;2.53;;
15354;SDS011;7777;52.254;9.618;2023-05-10T01:01:05;5.30;;;2.40;;
15354;SDS011;7777;52.254;9.618;2023-05-10T01:03:32;12.17;;;2.80;;
15354;SDS011;7777;52.254;9.618;2023-05-10T01:05:58;5.37;;;2.47;;
15354;SDS011;7777;52.254;9.618;2023-05-10T01:08:23;7.00;;;2.53;;
15354;SDS011;7777;52.254;9.618;2023-05-10T01:10:50;4.90;;;2.70;;
15354;SDS011;7777;52.254;9.618;2023-05-10T01:13:18;3.63;;;2.97;;
15354;SDS011;7777;52.254;9.618;2023-05-10T01:16:07;7.57;;;2.47;;
15354;SDS011;7777;52.254;9.618;2023-05-10T01:18:35;6.77;;;2.53;;
15354;SDS011;7777;52.254;9.618;2023-05-10T01:21:06;5.13;;;2.57;;
15354;SDS011;7777;52.254;9.618;2023-05-10T01:36:01;6.63;;;2.60;;
15354;SDS011;7777;52.254;9.618;2023-05-10T01:38:17;4.50;;;2.13;;
15354;SDS011;7777;52.254;9.618;2023-05-10T01:49:39;3.97;;;2.77;;
15354;SDS011;7777;52.254;9.618;2023-05-10T01:52:15;6.37;;;2.50;;
15354;SDS011;7777;52.254;9.618;2023-05-10T01:54:49;5.68;;;2.20;;
15354;SDS011;7777;52.254;9.618;2023-05-10T01:57:20;6.93;;;2.23;;
15354;SDS011;7777;52.254;9.618;2023-05-10T01:59:51;6.87;;;2.60;;
15354;SDS011;7777;52.254;9.618;2023-05-10T02:02:20;4.50;;;2.70;;
15354;SDS011;7777;52.254;9.618;2023-05-10T02:04:47;6.70;;;2.30;;
15354;SDS011;7777;52.254;9.618;2023-05-10T02:07:14;7.50;;;2.83;;
15354;SDS011;7777;52.254;9.618;2023-05-10T02:09:42;5.53;;;2.53;;
15354;SDS011;7777;52.254;9.618;2023-05-10T02:12:12;5.83;;;2.70;;
15354;SDS011;7777;52.254;9.618;2023-05-10T02:14:39;5.70;;;2.93;;
15354;SDS011;7777;52.254;9.618;2023-05-10T02:17:07;4.60;;;2.60;;
15354;SDS011;7777;52.254;9.618;2023-05-10T02:19:34;4.93;;;2.77;;
15354;SDS011;7777;52.254;9.618;2023-05-10T02:22:03;5.63;;;2.30;;
15354;SDS011;7777;52.254;9.618;2023-05-10T02:24:30;6.50;;;2.70;;
15354;SDS011;7777;52.254;9.618;2023-05-10T02:26:58;4.37;;;2.80;;
15354;SDS011;7777;52.254;9.618;2023-05-10T02:29:25;7.37;;;3.00;;
15354;SDS011;7777;52.254;9.618;2023-05-10T02:31:54;7.73;;;2.70;;
15354;SDS011;7777;52.254;9.618;2023-05-10T02:34:21;4.40;;;3.07;;
15354;SDS011;7777;52.254;9.618;2023-05-10T02:36:48;7.53;;;2.80;;
15354;SDS011;7777;52.254;9.618;2023-05-10T02:39:16;12.33;;;3.00;;
15354;SDS011;7777;52.254;9.618;2023-05-10T02:41:44;4.90;;;2.50;;
15354;SDS011;7777;52.254;9.618;2023-05-10T02:44:11;4.63;;;3.27;;
15354;SDS011;7777;52.254;9.618;2023-05-10T02:46:42;6.00;;;3.10;;
15354;SDS011;7777;52.254;9.618;2023-05-10T02:49:08;6.00;;;2.80;;
15354;SDS011;7777;52.254;9.618;2023-05-10T02:51:35;5.33;;;3.13;;
15354;SDS011;7777;52.254;9.618;2023-05-10T02:54:10;6.17;;;3.00;;
15354;SDS011;7777;52.254;9.618;2023-05-10T02:56:42;4.70;;;2.90;;
15354;SDS011;7777;52.254;9.618;2023-05-10T02:59:16;4.40;;;3.10;;
15354;SDS011;7777;52.254;9.618;2023-05-10T03:01:42;7.00;;;3.47;;
15354;SDS011;7777;52.254;9.618;2023-05-10T03:04:07;3.87;;;2.90;;
15354;SDS011;7777;52.254;9.618;2023-05-10T03:06:33;5.77;;;2.97;;
15354;SDS011;7777;52.254;9.618;2023-05-10T03:09:02;7.80;;;3.27;;
15354;SDS011;7777;52.254;9.618;2023-05-10T03:14:42;6.23;;;3.50;;
15354;SDS011;7777;52.254;9.618;2023-05-10T03:20:12;5.47;;;3.10;;
15354;SDS011;7777;52.254;9.618;2023-05-10T03:22:50;7.90;;;3.23;;
15354;SDS011;7777;52.254;9.618;2023-05-10T03:25:21;6.03;;;3.20;;
15354;SDS011;7777;52.254;9.618;2023-05-10T03:27:48;6.63;;;3.37;;
15354;SDS011;7777;52.254;9.618;2023-05-10T03:30:15;4.53;;;3.10;;
15354;SDS011;7777;52.254;9.618;2023-05-10T03:32:41;9.17;;;2.93;;
15354;SDS011;7777;52.254;9.618;2023-05-10T03:35:08;5.43;;;2.57;;
15354;SDS011;7777;52.254;9.618;2023-05-10T03:37:34;4.90;;;2.90;;
15354;SDS011;7777;52.254;9.618;2023-05-10T03:40:01;6.23;;;3.00;;
15354;SDS011;7777;52.254;9.618;2023-05-10T03:42:27;2.97;;;2.50;;
15354;SDS011;7777;52.254;9.618;2023-05-10T03:44:53;5.47;;;2.70;;
15354;SDS011;7777;52.254;9.618;2023-05-10T03:47:19;8.83;;;3.00;;
15354;SDS011;7777;52.254;9.618;2023-05-10T03:49:45;3.80;;;2.40;;
15354;SDS011;7777;52.254;9.618;2023-05-10T03:52:10;4.83;;;2.77;;
15354;SDS011;7777;52.254;9.618;2023-05-10T03:54:37;5.23;;;2.93;;
15354;SDS011;7777;52.254;9.618;2023-05-10T03:57:05;4.30;;;2.73;;
15354;SDS011;7777;52.254;9.618;2023-05-10T03:59:30;5.67;;;3.17;;
15354;SDS011;7777;52.254;9.618;2023-05-10T04:01:56;5.13;;;2.60;;
15354;SDS011;7777;52.254;9.618;2023-05-10T04:04:22;6.40;;;3.20;;
15354;SDS011;7777;52.254;9.618;2023-05-10T04:06:48;4.43;;;2.90;;
15354;SDS011;7777;52.254;9.618;2023-05-10T04:09:14;5.33;;;2.80;;
15354;SDS011;7777;52.254;9.618;2023-05-10T04:11:53;5.23;;;2.87;;
15354;SDS011;7777;52.254;9.618;2023-05-10T04:17:03;6.57;;;3.53;;
15354;SDS011;7777;52.254;9.618;2023-05-10T04:19:29;4.57;;;3.40;;
15354;SDS011;7777;52.254;9.618;2023-05-10T04:21:56;6.83;;;3.67;;
15354;SDS011;7777;52.254;9.618;2023-05-10T04:24:22;8.93;;;3.90;;
15354;SDS011;7777;52.254;9.618;2023-05-10T04:26:48;8.20;;;3.80;;
15354;SDS011;7777;52.254;9.618;2023-05-10T04:29:14;6.47;;;3.43;;
15354;SDS011;7777;52.254;9.618;2023-05-10T04:31:40;4.57;;;3.60;;
15354;SDS011;7777;52.254;9.618;2023-05-10T04:34:05;6.40;;;3.90;;
15354;SDS011;7777;52.254;9.618;2023-05-10T04:36:31;5.37;;;3.90;;
15354;SDS011;7777;52.254;9.618;2023-05-10T04:39:01;6.87;;;4.23;;
15354;SDS011;7777;52.254;9.618;2023-05-10T04:41:28;6.50;;;3.87;;
15354;SDS011;7777;52.254;9.618;2023-05-10T04:43:54;4.70;;;3.60;;
15354;SDS011;7777;52.254;9.618;2023-05-10T04:46:20;7.77;;;4.23;;
15354;SDS011;7777;52.254;9.618;2023-05-10T04:48:46;9.20;;;4.23;;
15354;SDS011;7777;52.254;9.618;2023-05-10T04:51:11;5.90;;;3.97;;
15354;SDS011;7777;52.254;9.618;2023-05-10T04:53:37;7.43;;;4.17;;
15354;SDS011;7777;52.254;9.618;2023-05-10T04:56:03;6.93;;;4.10;;
15354;SDS011;7777;52.254;9.618;2023-05-10T04:58:29;6.60;;;4.80;;
15354;SDS011;7777;52.254;9.618;2023-05-10T05:00:55;5.93;;;4.53;;
15354;SDS011;7777;52.254;9.618;2023-05-10T05:03:21;5.73;;;4.17;;
15354;SDS011;7777;52.254;9.618;2023-05-10T05:05:47;7.00;;;4.17;;
15354;SDS011;7777;52.254;9.618;2023-05-10T05:08:13;5.83;;;4.50;;
15354;SDS011;7777;52.254;9.618;2023-05-10T05:10:39;6.33;;;4.87;;
15354;SDS011;7777;52.254;9.618;2023-05-10T05:13:05;6.37;;;4.57;;
15354;SDS011;7777;52.254;9.618;2023-05-10T05:15:31;9.47;;;4.80;;
15354;SDS011;7777;52.254;9.618;2023-05-10T05:17:59;10.70;;;4.53;;
15354;SDS011;7777;52.254;9.618;2023-05-10T05:20:25;6.23;;;4.63;;
15354;SDS011;7777;52.254;9.618;2023-05-10T05:22:51;6.10;;;4.63;;
15354;SDS011;7777;52.254;9.618;2023-05-10T05:25:16;6.40;;;4.10;;
15354;SDS011;7777;52.254;9.618;2023-05-10T05:27:42;6.53;;;4.53;;
15354;SDS011;7777;52.254;9.618;2023-05-10T05:30:08;6.23;;;4.03;;
15354;SDS011;7777;52.254;9.618;2023-05-10T05:32:34;7.03;;;4.70;;
15354;SDS011;7777;52.254;9.618;2023-05-10T05:35:00;5.03;;;4.07;;
15354;SDS011;7777;52.254;9.618;2023-05-10T05:37:26;5.17;;;4.03;;
15354;SDS011;7777;52.254;9.618;2023-05-10T05:39:51;5.10;;;4.30;;
15354;SDS011;7777;52.254;9.618;2023-05-10T05:42:17;6.37;;;4.10;;
15354;SDS011;7777;52.254;9.618;2023-05-10T05:44:43;9.53;;;4.30;;
15354;SDS011;7777;52.254;9.618;2023-05-10T05:47:10;6.97;;;4.50;;
15354;SDS011;7777;52.254;9.618;2023-05-10T05:49:36;5.53;;;4.20;;
15354;SDS011;7777;52.254;9.618;2023-05-10T05:52:02;5.67;;;4.37;;
15354;SDS011;7777;52.254;9.618;2023-05-10T05:54:28;6.50;;;4.50;;
15354;SDS011;7777;52.254;9.618;2023-05-10T05:56:56;7.07;;;4.37;;
15354;SDS011;7777;52.254;9.618;2023-05-10T05:59:23;7.80;;;4.70;;
15354;SDS011;7777;52.254;9.618;2023-05-10T06:01:49;6.80;;;4.33;;
15354;SDS011;7777;52.254;9.618;2023-05-10T06:04:15;6.13;;;4.77;;
15354;SDS011;7777;52.254;9.618;2023-05-10T06:06:42;7.00;;;4.70;;
15354;SDS011;7777;52.254;9.618;2023-05-10T06:09:08;6.87;;;4.27;;
15354;SDS011;7777;52.254;9.618;2023-05-10T06:11:34;8.00;;;4.80;;
15354;SDS011;7777;52.254;9.618;2023-05-10T06:14:01;5.83;;;3.87;;
15354;SDS011;7777;52.254;9.618;2023-05-10T06:16:29;7.60;;;4.37;;
15354;SDS011;7777;52.254;9.618;2023-05-10T06:18:56;5.57;;;4.47;;
15354;SDS011;7777;52.254;9.618;2023-05-10T06:21:21;5.23;;;4.20;;
15354;SDS011;7777;52.254;9.618;2023-05-10T06:23:47;6.70;;;4.77;;
15354;SDS011;7777;52.254;9.618;2023-05-10T06:26:13;5.27;;;4.17;;
15354;SDS011;7777;52.254;9.618;2023-05-10T06:28:39;10.23;;;4.27;;
15354;SDS011;7777;52.254;9.618;2023-05-10T06:31:05;5.33;;;4.47;;
15354;SDS011;7777;52.254;9.618;2023-05-10T06:33:31;10.40;;;5.03;;
15354;SDS011;7777;52.254;9.618;2023-05-10T06:35:57;6.00;;;4.13;;
15354;SDS011;7777;52.254;9.618;2023-05-10T06:38:23;5.90;;;4.40;;
15354;SDS011;7777;52.254;9.618;2023-05-10T06:40:49;7.80;;;4.80;;
15354;SDS011;7777;52.254;9.618;2023-05-10T06:43:15;5.50;;;4.63;;
15354;SDS011;7777;52.254;9.618;2023-05-10T06:45:41;6.10;;;4.87;;
15354;SDS011;7777;52.254;9.618;2023-05-10T06:48:07;6.37;;;4.00;;
15354;SDS011;7777;52.254;9.618;2023-05-10T06:50:33;6.20;;;4.20;;
15354;SDS011;7777;52.254;9.618;2023-05-10T06:52:59;5.30;;;3.83;;
15354;SDS011;7777;52.254;9.618;2023-05-10T06:55:26;9.03;;;4.13;;
15354;SDS011;7777;52.254;9.618;2023-05-10T06:57:53;5.10;;;3.57;;
15354;SDS011;7777;52.254;9.618;2023-05-10T07:00:19;4.03;;;3.33;;
15354;SDS011;7777;52.254;9.618;2023-05-10T07:02:45;5.70;;;3.40;;
15354;SDS011;7777;52.254;9.618;2023-05-10T07:05:11;4.57;;;3.63;;
15354;SDS011;7777;52.254;9.618;2023-05-10T07:07:37;4.23;;;3.50;;
15354;SDS011;7777;52.254;9.618;2023-05-10T07:10:03;4.00;;;3.40;;
15354;SDS011;7777;52.254;9.618;2023-05-10T07:12:30;4.40;;;3.60;;
15354;SDS011;7777;52.254;9.618;2023-05-10T07:14:55;7.03;;;3.80;;
15354;SDS011;7777;52.254;9.618;2023-05-10T07:17:21;5.00;;;3.60;;
15354;SDS011;7777;52.254;9.618;2023-05-10T07:19:47;5.60;;;3.63;;
15354;SDS011;7777;52.254;9.618;2023-05-10T07:22:13;4.17;;;3.50;;
15354;SDS011;7777;52.254;9.618;2023-05-10T07:24:39;3.50;;;3.13;;
15354;SDS011;7777;52.254;9.618;2023-05-10T07:27:05;5.90;;;3.60;;
15354;SDS011;7777;52.254;9.618;2023-05-10T07:29:32;4.10;;;2.00;;
15354;SDS011;7777;52.254;9.618;2023-05-10T07:31:58;2.77;;;2.17;;
15354;SDS011;7777;52.254;9.618;2023-05-10T07:34:24;3.20;;;2.07;;
15354;SDS011;7777;52.254;9.618;2023-05-10T07:36:50;2.17;;;1.70;;
15354;SDS011;7777;52.254;9.618;2023-05-10T07:39:16;1.93;;;1.17;;
15354;SDS011;7777;52.254;9.618;2023-05-10T07:41:42;1.43;;;0.90;;
15354;SDS011;7777;52.254;9.618;2023-05-10T07:44:08;0.90;;;0.73;;
15354;SDS011;7777;52.254;9.618;2023-05-10T07:46:34;2.67;;;0.80;;
15354;SDS011;7777;52.254;9.618;2023-05-10T07:48:59;1.10;;;0.90;;
15354;SDS011;7777;52.254;9.618;2023-05-10T07:51:25;0.70;;;0.70;;
15354;SDS011;7777;52.254;9.618;2023-05-10T07:53:52;1.27;;;0.70;;
15354;SDS011;7777;52.254;9.618;2023-05-10T07:56:22;1.40;;;0.60;;
15354;SDS011;7777;52.254;9.618;2023-05-10T07:58:57;2.33;;;0.77;;
15354;SDS011;7777;52.254;9.618;2023-05-10T08:01:24;0.40;;;0.40;;
15354;SDS011;7777;52.254;9.618;2023-05-10T08:03:51;0.43;;;0.43;;
15354;SDS011;7777;52.254;9.618;2023-05-10T08:06:18;0.73;;;0.40;;
15354;SDS011;7777;52.254;9.618;2023-05-10T08:08:45;0.80;;;0.40;;
15354;SDS011;7777;52.254;9.618;2023-05-10T08:11:15;0.30;;;0.30;;
15354;SDS011;7777;52.254;9.618;2023-05-10T08:13:44;1.03;;;0.37;;
15354;SDS011;7777;52.254;9.618;2023-05-10T08:16:10;0.60;;;0.40;;
15354;SDS011;7777;52.254;9.618;2023-05-10T08:18:36;0.40;;;0.40;;
15354;SDS011;7777;52.254;9.618;2023-05-10T08:21:03;1.13;;;0.40;;
15354;SDS011;7777;52.254;9.618;2023-05-10T08:23:29;0.30;;;0.30;;
15354;SDS011;7777;52.254;9.618;2023-05-10T08:25:55;1.70;;;0.40;;
15354;SDS011;7777;52.254;9.618;2023-05-10T08:28:20;0.70;;;0.40;;
15354;SDS011;7777;52.254;9.618;2023-05-10T08:30:46;0.60;;;0.40;;
15354;SDS011;7777;52.254;9.618;2023-05-10T08:33:12;0.30;;;0.30;;
15354;SDS011;7777;52.254;9.618;2023-05-10T08:35:37;0.30;;;0.30;;
15354;SDS011;7777;52.254;9.618;2023-05-10T08:38:03;0.77;;;0.40;;
15354;SDS011;7777;52.254;9.618;2023-05-10T08:40:29;0.33;;;0.33;;
15354;SDS011;7777;52.254;9.618;2023-05-10T08:42:57;1.80;;;0.40;;
15354;SDS011;7777;52.254;9.618;2023-05-10T08:45:38;2.20;;;0.50;;
15354;SDS011;7777;52.254;9.618;2023-05-10T08:48:07;0.50;;;0.40;;
15354;SDS011;7777;52.254;9.618;2023-05-10T08:50:41;3.60;;;0.63;;
15354;SDS011;7777;52.254;9.618;2023-05-10T08:53:11;0.47;;;0.27;;
15354;SDS011;7777;52.254;9.618;2023-05-10T08:55:38;0.30;;;0.30;;
15354;SDS011;7777;52.254;9.618;2023-05-10T08:58:07;0.40;;;0.40;;
15354;SDS011;7777;52.254;9.618;2023-05-10T09:00:34;0.60;;;0.50;;
15354;SDS011;7777;52.254;9.618;2023-05-10T09:03:02;1.90;;;0.40;;
15354;SDS011;7777;52.254;9.618;2023-05-10T09:05:29;2.27;;;0.50;;
15354;SDS011;7777;52.254;9.618;2023-05-10T09:07:55;0.80;;;0.50;;
15354;SDS011;7777;52.254;9.618;2023-05-10T09:10:21;1.13;;;0.50;;
15354;SDS011;7777;52.254;9.618;2023-05-10T09:12:50;0.70;;;0.50;;
15354;SDS011;7777;52.254;9.618;2023-05-10T09:15:16;0.50;;;0.47;;
15354;SDS011;7777;52.254;9.618;2023-05-10T09:17:44;0.60;;;0.60;;
15354;SDS011;7777;52.254;9.618;2023-05-10T09:20:11;1.27;;;0.60;;
15354;SDS011;7777;52.254;9.618;2023-05-10T09:22:37;0.77;;;0.60;;
15354;SDS011;7777;52.254;9.618;2023-05-10T09:25:14;0.93;;;0.60;;
15354;SDS011;7777;52.254;9.618;2023-05-10T09:27:41;0.70;;;0.60;;
15354;SDS011;7777;52.254;9.618;2023-05-10T09:30:22;4.53;;;0.97;;
15354;SDS011;7777;52.254;9.618;2023-05-10T09:32:56;2.43;;;0.83;;
15354;SDS011;7777;52.254;9.618;2023-05-10T09:35:24;2.67;;;0.80;;
15354;SDS011;7777;52.254;9.618;2023-05-10T09:37:53;0.90;;;0.70;;
15354;SDS011;7777;52.254;9.618;2023-05-10T09:40:22;1.57;;;0.70;;
15354;SDS011;7777;52.254;9.618;2023-05-10T09:42:54;1.80;;;0.90;;
15354;SDS011;7777;52.254;9.618;2023-05-10T09:45:33;0.70;;;0.70;;
15354;SDS011;7777;52.254;9.618;2023-05-10T09:48:01;1.00;;;0.73;;
15354;SDS011;7777;52.254;9.618;2023-05-10T09:50:28;1.10;;;0.77;;
15354;SDS011;7777;52.254;9.618;2023-05-10T09:52:55;1.47;;;1.07;;
15354;SDS011;7777;52.254;9.618;2023-05-10T09:55:25;2.47;;;1.20;;
15354;SDS011;7777;52.254;9.618;2023-05-10T09:58:03;2.17;;;0.90;;
15354;SDS011;7777;52.254;9.618;2023-05-10T10:00:35;3.23;;;1.30;;
15354;SDS011;7777;52.254;9.618;2023-05-10T10:03:03;5.77;;;1.53;;
15354;SDS011;7777;52.254;9.618;2023-05-10T10:05:32;2.90;;;1.40;;
15354;SDS011;7777;52.254;9.618;2023-05-10T10:08:02;2.03;;;1.33;;
15354;SDS011;7777;52.254;9.618;2023-05-10T10:10:29;2.37;;;1.30;;
15354;SDS011;7777;52.254;9.618;2023-05-10T10:12:58;3.33;;;1.40;;
15354;SDS011;7777;52.254;9.618;2023-05-10T10:15:24;4.73;;;1.90;;
15354;SDS011;7777;52.254;9.618;2023-05-10T10:17:51;3.63;;;1.80;;
15354;SDS011;7777;52.254;9.618;2023-05-10T10:20:18;4.70;;;2.33;;
15354;SDS011;7777;52.254;9.618;2023-05-10T10:22:46;3.50;;;2.00;;
15354;SDS011;7777;52.254;9.618;2023-05-10T10:25:14;4.80;;;2.30;;
15354;SDS011;7777;52.254;9.618;2023-05-10T10:36:06;3.37;;;2.10;;
15354;SDS011;7777;52.254;9.618;2023-05-10T10:39:18;5.13;;;2.30;;
15354;SDS011;7777;52.254;9.618;2023-05-10T10:52:36;3.77;;;2.40;;
15354;SDS011;7777;52.254;9.618;2023-05-10T11:00:21;4.40;;;2.30;;
15354;SDS011;7777;52.254;9.618;2023-05-10T11:05:50;4.73;;;2.50;;
15354;SDS011;7777;52.254;9.618;2023-05-10T11:08:26;4.27;;;2.40;;
15354;SDS011;7777;52.254;9.618;2023-05-10T11:13:28;4.37;;;2.53;;
15354;SDS011;7777;52.254;9.618;2023-05-10T11:16:13;4.77;;;2.90;;
15354;SDS011;7777;52.254;9.618;2023-05-10T11:19:01;3.80;;;2.73;;
15354;SDS011;7777;52.254;9.618;2023-05-10T11:21:34;6.97;;;3.00;;
15354;SDS011;7777;52.254;9.618;2023-05-10T11:24:20;4.23;;;2.77;;
15354;SDS011;7777;52.254;9.618;2023-05-10T11:26:51;5.43;;;2.70;;
15354;SDS011;7777;52.254;9.618;2023-05-10T11:29:17;4.43;;;2.57;;
15354;SDS011;7777;52.254;9.618;2023-05-10T11:31:43;4.43;;;2.60;;
15354;SDS011;7777;52.254;9.618;2023-05-10T11:34:10;7.20;;;3.00;;
15354;SDS011;7777;52.254;9.618;2023-05-10T11:36:37;4.57;;;3.33;;
15354;SDS011;7777;52.254;9.618;2023-05-10T11:39:03;7.63;;;3.73;;
15354;SDS011;7777;52.254;9.618;2023-05-10T11:41:30;5.87;;;3.37;;
15354;SDS011;7777;52.254;9.618;2023-05-10T11:43:57;5.23;;;2.80;;
15354;SDS011;7777;52.254;9.618;2023-05-10T11:46:24;3.73;;;2.50;;
15354;SDS011;7777;52.254;9.618;2023-05-10T11:48:52;5.20;;;2.90;;
15354;SDS011;7777;52.254;9.618;2023-05-10T11:51:22;6.40;;;3.03;;
15354;SDS011;7777;52.254;9.618;2023-05-10T11:53:52;7.23;;;3.10;;
15354;SDS011;7777;52.254;9.618;2023-05-10T11:56:19;4.40;;;2.70;;
15354;SDS011;7777;52.254;9.618;2023-05-10T11:58:45;2.93;;;2.50;;
15354;SDS011;7777;52.254;9.618;2023-05-10T12:01:22;5.47;;;3.17;;
15354;SDS011;7777;52.254;9.618;2023-05-10T12:03:50;4.87;;;2.87;;
15354;SDS011;7777;52.254;9.618;2023-05-10T12:06:18;3.43;;;2.53;;
15354;SDS011;7777;52.254;9.618;2023-05-10T12:08:48;7.60;;;3.17;;
15354;SDS011;7777;52.254;9.618;2023-05-10T12:11:20;5.03;;;2.33;;
15354;SDS011;7777;52.254;9.618;2023-05-10T12:13:51;4.47;;;2.83;;
15354;SDS011;7777;52.254;9.618;2023-05-10T12:16:20;3.57;;;2.17;;
15354;SDS011;7777;52.254;9.618;2023-05-10T12:18:52;3.73;;;2.43;;
15354;SDS011;7777;52.254;9.618;2023-05-10T12:21:24;4.13;;;2.30;;
15354;SDS011;7777;52.254;9.618;2023-05-10T12:23:51;4.90;;;2.77;;
15354;SDS011;7777;52.254;9.618;2023-05-10T12:26:22;4.43;;;2.43;;
15354;SDS011;7777;52.254;9.618;2023-05-10T12:32:04;3.77;;;2.77;;
15354;SDS011;7777;52.254;9.618;2023-05-10T12:34:33;6.53;;;2.93;;
15354;SDS011;7777;52.254;9.618;2023-05-10T12:37:21;12.30;;;3.00;;
15354;SDS011;7777;52.254;9.618;2023-05-10T12:39:53;4.07;;;2.90;;
15354;SDS011;7777;52.254;9.618;2023-05-10T12:42:21;4.80;;;3.23;;
15354;SDS011;7777;52.254;9.618;2023-05-10T12:44:54;3.60;;;2.77;;
15354;SDS011;7777;52.254;9.618;2023-05-10T12:47:21;7.77;;;2.63;;
15354;SDS011;7777;52.254;9.618;2023-05-10T12:49:47;6.50;;;3.17;;
15354;SDS011;7777;52.254;9.618;2023-05-10T12:52:16;5.10;;;3.27;;
15354;SDS011;7777;52.254;9.618;2023-05-10T12:54:41;6.10;;;3.20;;
15354;SDS011;7777;52.254;9.618;2023-05-10T12:57:07;5.63;;;3.40;;
15354;SDS011;7777;52.254;9.618;2023-05-10T12:59:33;5.53;;;3.30;;
15354;SDS011;7777;52.254;9.618;2023-05-10T13:01:59;8.43;;;3.13;;
15354;SDS011;7777;52.254;9.618;2023-05-10T13:04:24;5.33;;;2.97;;
15354;SDS011;7777;52.254;9.618;2023-05-10T13:06:50;4.07;;;2.67;;
15354;SDS011;7777;52.254;9.618;2023-05-10T13:09:16;4.93;;;2.90;;
15354;SDS011;7777;52.254;9.618;2023-05-10T13:11:42;6.90;;;3.13;;
15354;SDS011;7777;52.254;9.618;2023-05-10T13:14:07;3.43;;;2.40;;
15354;SDS011;7777;52.254;9.618;2023-05-10T13:16:33;3.73;;;2.77;;
15354;SDS011;7777;52.254;9.618;2023-05-10T13:18:59;5.03;;;2.53;;
15354;SDS011;7777;52.254;9.618;2023-05-10T13:21:25;4.03;;;2.33;;
15354;SDS011;7777;52.254;9.618;2023-05-10T13:23:51;3.43;;;2.10;;
15354;SDS011;7777;52.254;9.618;2023-05-10T13:26:18;4.53;;;2.40;;
15354;SDS011;7777;52.254;9.618;2023-05-10T13:28:43;5.27;;;2.93;;
15354;SDS011;7777;52.254;9.618;2023-05-10T13:31:10;3.40;;;2.43;;
15354;SDS011;7777;52.254;9.618;2023-05-10T13:33:36;6.07;;;2.30;;
15354;SDS011;7777;52.254;9.618;2023-05-10T13:36:02;5.03;;;2.50;;
15354;SDS011;7777;52.254;9.618;2023-05-10T13:38:28;4.80;;;2.60;;
15354;SDS011;7777;52.254;9.618;2023-05-10T13:40:53;3.80;;;2.67;;
15354;SDS011;7777;52.254;9.618;2023-05-10T13:43:19;4.90;;;2.50;;
15354;SDS011;7777;52.254;9.618;2023-05-10T13:45:45;4.00;;;2.53;;
15354;SDS011;7777;52.254;9.618;2023-05-10T13:48:11;6.60;;;2.60;;
15354;SDS011;7777;52.254;9.618;2023-05-10T13:50:37;14.40;;;2.53;;
15354;SDS011;7777;52.254;9.618;2023-05-10T13:53:03;4.60;;;2.60;;
15354;SDS011;7777;52.254;9.618;2023-05-10T13:55:30;4.63;;;2.20;;
15354;SDS011;7777;52.254;9.618;2023-05-10T13:57:56;4.57;;;1.90;;
15354;SDS011;7777;52.254;9.618;2023-05-10T14:00:21;5.70;;;2.30;;
15354;SDS011;7777;52.254;9.618;2023-05-10T14:02:49;5.70;;;2.47;;
15354;SDS011;7777;52.254;9.618;2023-05-10T14:05:16;5.10;;;2.63;;
15354;SDS011;7777;52.254;9.618;2023-05-10T14:07:41;3.13;;;2.23;;
15354;SDS011;7777;52.254;9.618;2023-05-10T14:10:07;3.43;;;2.20;;
15354;SDS011;7777;52.254;9.618;2023-05-10T14:12:33;5.33;;;2.73;;
15354;SDS011;7777;52.254;9.618;2023-05-10T14:14:59;4.10;;;2.77;;
15354;SDS011;7777;52.254;9.618;2023-05-10T14:17:25;4.60;;;2.70;;
15354;SDS011;7777;52.254;9.618;2023-05-10T14:19:50;4.63;;;2.57;;
15354;SDS011;7777;52.254;9.618;2023-05-10T14:22:20;5.93;;;2.87;;
15354;SDS011;7777;52.254;9.618;2023-05-10T14:24:46;5.47;;;3.33;;
15354;SDS011;7777;52.254;9.618;2023-05-10T14:27:12;8.17;;;3.63;;
15354;SDS011;7777;52.254;9.618;2023-05-10T14:29:38;5.70;;;3.33;;
15354;SDS011;7777;52.254;9.618;2023-05-10T14:32:04;3.70;;;3.13;;
15354;SDS011;7777;52.254;9.618;2023-05-10T14:34:30;5.87;;;3.67;;
15354;SDS011;7777;52.254;9.618;2023-05-10T14:36:55;11.00;;;3.87;;
15354;SDS011;7777;52.254;9.618;2023-05-10T14:39:21;4.67;;;3.30;;
15354;SDS011;7777;52.254;9.618;2023-05-10T14:41:47;5.73;;;4.00;;
15354;SDS011;7777;52.254;9.618;2023-05-10T14:44:13;6.70;;;4.40;;
15354;SDS011;7777;52.254;9.618;2023-05-10T14:46:40;6.67;;;3.90;;
15354;SDS011;7777;52.254;9.618;2023-05-10T14:49:06;8.03;;;5.00;;
15354;SDS011;7777;52.254;9.618;2023-05-10T14:51:32;7.47;;;5.47;;
15354;SDS011;7777;52.254;9.618;2023-05-10T14:53:58;8.97;;;6.30;;
15354;SDS011;7777;52.254;9.618;2023-05-10T14:56:24;8.17;;;6.67;;
15354;SDS011;7777;52.254;9.618;2023-05-10T14:58:51;9.73;;;6.57;;
15354;SDS011;7777;52.254;9.618;2023-05-10T15:01:16;9.17;;;6.47;;
15354;SDS011;7777;52.254;9.618;2023-05-10T15:03:42;9.03;;;7.03;;
15354;SDS011;7777;52.254;9.618;2023-05-10T15:06:08;9.90;;;6.87;;
15354;SDS011;7777;52.254;9.618;2023-05-10T15:08:34;9.47;;;6.90;;
15354;SDS011;7777;52.254;9.618;2023-05-10T15:11:00;18.70;;;10.57;;
15354;SDS011;7777;52.254;9.618;2023-05-10T15:13:25;22.13;;;11.50;;
15354;SDS011;7777;52.254;9.618;2023-05-10T15:15:51;30.57;;;12.13;;
15354;SDS011;7777;52.254;9.618;2023-05-10T15:18:17;23.87;;;12.00;;
15354;SDS011;7777;52.254;9.618;2023-05-10T15:20:45;22.37;;;10.27;;
15354;SDS011;7777;52.254;9.618;2023-05-10T15:23:11;22.70;;;11.77;;
15354;SDS011;7777;52.254;9.618;2023-05-10T15:25:36;26.47;;;12.50;;
15354;SDS011;7777;52.254;9.618;2023-05-10T15:30:47;20.73;;;12.17;;
15354;SDS011;7777;52.254;9.618;2023-05-10T15:33:13;19.67;;;11.43;;
15354;SDS011;7777;52.254;9.618;2023-05-10T15:35:39;16.97;;;11.07;;
15354;SDS011;7777;52.254;9.618;2023-05-10T15:38:05;24.43;;;11.27;;
15354;SDS011;7777;52.254;9.618;2023-05-10T15:40:31;15.70;;;11.00;;
15354;SDS011;7777;52.254;9.618;2023-05-10T15:42:57;19.67;;;12.53;;
15354;SDS011;7777;52.254;9.618;2023-05-10T15:45:22;17.60;;;11.60;;
15354;SDS011;7777;52.254;9.618;2023-05-10T15:47:48;15.30;;;11.53;;
15354;SDS011;7777;52.254;9.618;2023-05-10T15:50:14;15.23;;;11.67;;
15354;SDS011;7777;52.254;9.618;2023-05-10T15:52:41;13.97;;;10.37;;
15354;SDS011;7777;52.254;9.618;2023-05-10T15:55:07;14.37;;;11.33;;
15354;SDS011;7777;52.254;9.618;2023-05-10T15:57:37;16.73;;;11.63;;
15354;SDS011;7777;52.254;9.618;2023-05-10T16:00:08;17.90;;;12.07;;
15354;SDS011;7777;52.254;9.618;2023-05-10T16:02:39;14.27;;;10.83;;
15354;SDS011;7777;52.254;9.618;2023-05-10T16:05:05;12.23;;;10.20;;
15354;SDS011;7777;52.254;9.618;2023-05-10T16:07:32;14.97;;;11.33;;